createdAt,value
2022-09-01T00:04:18.661Z,19.10
2022-09-01T00:06:45.597Z,13.60
2022-09-01T00:09:15.467Z,12.80
2022-09-01T00:11:47.929Z,12.70
2022-09-01T00:14:30.652Z,15.30
2022-09-01T00:16:59.996Z,16.30
2022-09-01T00:19:26.921Z,12.50
2022-09-01T00:21:53.547Z,15.00
2022-09-01T00:24:20.284Z,12.90
2022-09-01T00:26:47.811Z,15.30
2022-09-01T00:29:15.633Z,11.50
2022-09-01T00:31:42.484Z,11.20
2022-09-01T00:34:09.137Z,17.70
2022-09-01T00:36:36.603Z,13.80
2022-09-01T00:39:05.555Z,13.90
2022-09-01T00:41:34.269Z,21.30
2022-09-01T00:44:06.878Z,13.80
2022-09-01T00:49:46.636Z,12.50
2022-09-01T00:52:18.589Z,12.80
2022-09-01T00:54:49.953Z,10.10
2022-09-01T00:57:17.054Z,11.20
2022-09-01T00:59:57.724Z,11.90
2022-09-01T01:02:25.085Z,13.20
2022-09-01T01:04:52.147Z,11.80
2022-09-01T01:07:22.291Z,11.90
2022-09-01T01:09:49.979Z,10.40
2022-09-01T01:12:17.706Z,12.10
2022-09-01T01:14:47.396Z,12.60
2022-09-01T01:17:14.113Z,13.20
2022-09-01T01:20:01.445Z,11.70
2022-09-01T01:22:58.601Z,14.20
2022-09-01T01:25:26.358Z,15.90
2022-09-01T01:28:11.036Z,11.90
2022-09-01T01:30:41.432Z,12.30
2022-09-01T01:33:09.511Z,9.20
2022-09-01T01:35:41.793Z,16.70
2022-09-01T01:38:09.335Z,12.40
2022-09-01T01:40:37.681Z,15.70
2022-09-01T01:43:05.286Z,18.80
2022-09-01T01:45:32.185Z,18.50
2022-09-01T01:48:02.873Z,14.30
2022-09-01T01:50:35.078Z,15.90
2022-09-01T01:55:41.327Z,10.80
2022-09-01T01:58:09.307Z,17.50
2022-09-01T02:00:37.254Z,15.00
2022-09-01T02:03:04.707Z,16.80
2022-09-01T02:05:35.343Z,15.10
2022-09-01T02:08:06.046Z,15.60
2022-09-01T02:10:38.605Z,15.50
2022-09-01T02:15:41.831Z,12.20
2022-09-01T02:18:10.368Z,13.40
2022-09-01T02:20:37.514Z,11.20
2022-09-01T02:23:10.131Z,9.90
2022-09-01T02:26:05.195Z,10.80
2022-09-01T02:28:34.457Z,12.80
2022-09-01T02:31:02.140Z,11.30
2022-09-01T02:33:31.696Z,10.80
2022-09-01T02:36:02.456Z,10.40
2022-09-01T02:38:32.497Z,9.70
2022-09-01T02:41:02.984Z,14.20
2022-09-01T02:43:31.123Z,15.00
2022-09-01T02:46:00.632Z,11.10
2022-09-01T02:48:35.845Z,16.00
2022-09-01T02:51:16.021Z,12.40
2022-09-01T02:53:46.190Z,14.30
2022-09-01T02:56:13.737Z,17.00
2022-09-01T02:58:45.815Z,17.00
2022-09-01T03:01:26.847Z,15.70
2022-09-01T03:03:56.925Z,14.50
2022-09-01T03:06:24.825Z,24.10
2022-09-01T03:08:54.434Z,14.70
2022-09-01T03:11:23.242Z,16.10
2022-09-01T03:13:50.973Z,19.00
2022-09-01T03:16:18.441Z,17.50
2022-09-01T03:18:45.043Z,15.80
2022-09-01T03:21:16.530Z,14.30
2022-09-01T03:23:45.546Z,14.00
2022-09-01T03:26:14.518Z,12.40
2022-09-01T03:28:41.243Z,16.10
2022-09-01T03:31:08.912Z,13.80
2022-09-01T03:33:36.260Z,14.10
2022-09-01T03:36:05.009Z,14.30
2022-09-01T03:38:43.313Z,13.40
2022-09-01T03:41:12.481Z,13.60
2022-09-01T03:43:46.014Z,11.70
2022-09-01T03:46:19.596Z,11.00
2022-09-01T03:51:23.316Z,12.90
2022-09-01T03:53:56.933Z,18.90
2022-09-01T03:56:28.944Z,14.90
2022-09-01T03:58:58.302Z,14.20
2022-09-01T04:01:27.732Z,13.20
2022-09-01T04:03:55.231Z,17.80
2022-09-01T04:06:30.327Z,18.00
2022-09-01T04:09:02.004Z,21.90
2022-09-01T04:11:32.931Z,16.20
2022-09-01T04:14:00.467Z,17.70
2022-09-01T04:16:52.674Z,14.50
2022-09-01T04:19:26.462Z,10.50
2022-09-01T04:21:59.258Z,12.20
2022-09-01T04:24:32.074Z,16.10
2022-09-01T04:27:01.590Z,20.80
2022-09-01T04:29:30.847Z,14.00
2022-09-01T04:32:12.079Z,14.70
2022-09-01T04:37:20.907Z,12.70
2022-09-01T04:39:56.877Z,18.60
2022-09-01T04:42:28.646Z,15.10
2022-09-01T04:44:56.832Z,18.30
2022-09-01T04:47:29.548Z,18.80
2022-09-01T04:49:59.744Z,16.20
2022-09-01T04:52:27.748Z,14.70
2022-09-01T04:54:54.801Z,20.60
2022-09-01T04:57:22.061Z,12.50
2022-09-01T04:59:48.844Z,16.10
2022-09-01T05:02:16.155Z,21.80
2022-09-01T05:04:45.863Z,27.40
2022-09-01T05:07:13.602Z,22.10
2022-09-01T05:09:40.226Z,19.70
2022-09-01T05:12:40.626Z,16.10
2022-09-01T05:15:09.147Z,18.90
2022-09-01T05:17:37.914Z,18.50
2022-09-01T05:20:05.732Z,22.30
2022-09-01T05:22:35.069Z,21.40
2022-09-01T05:25:12.647Z,22.30
2022-09-01T05:27:48.929Z,24.50
2022-09-01T05:30:18.010Z,18.60
2022-09-01T05:32:48.553Z,21.20
2022-09-01T05:35:15.566Z,25.60
2022-09-01T05:37:42.863Z,25.00
2022-09-01T05:40:15.417Z,25.60
2022-09-01T05:42:45.912Z,31.00
2022-09-01T05:45:13.668Z,24.90
2022-09-01T05:47:41.286Z,33.50
2022-09-01T05:50:14.354Z,26.30
2022-09-01T05:52:47.307Z,41.60
2022-09-01T05:55:14.688Z,40.60
2022-09-01T05:57:42.510Z,39.00
2022-09-01T06:00:13.468Z,26.90
2022-09-01T06:02:42.231Z,28.70
2022-09-01T06:05:13.367Z,38.30
2022-09-01T06:07:42.227Z,33.60
2022-09-01T06:10:10.093Z,25.70
2022-09-01T06:12:37.194Z,28.70
2022-09-01T06:15:06.635Z,74.70
2022-09-01T06:17:35.894Z,62.40
2022-09-01T06:20:09.934Z,40.40
2022-09-01T06:22:38.967Z,43.10
2022-09-01T06:25:08.276Z,38.10
2022-09-01T06:27:43.798Z,38.80
2022-09-01T06:30:23.164Z,35.20
2022-09-01T06:33:00.673Z,42.00
2022-09-01T06:35:29.344Z,30.60
2022-09-01T06:37:57.886Z,45.40
2022-09-01T06:40:39.257Z,78.50
2022-09-01T06:43:11.438Z,34.40
2022-09-01T06:45:42.497Z,33.50
2022-09-01T06:48:15.273Z,63.20
2022-09-01T06:53:32.794Z,65.00
2022-09-01T06:56:02.389Z,59.20
2022-09-01T06:58:30.724Z,45.70
2022-09-01T07:00:57.564Z,45.60
2022-09-01T07:03:25.875Z,44.40
2022-09-01T07:06:59.075Z,28.60
2022-09-01T07:09:38.797Z,30.00
2022-09-01T07:12:26.635Z,28.30
2022-09-01T07:17:53.674Z,53.10
2022-09-01T07:20:24.551Z,43.50
2022-09-01T07:23:09.226Z,23.90
2022-09-01T07:26:02.229Z,23.30
2022-09-01T07:28:37.156Z,17.10
2022-09-01T07:33:54.547Z,13.30
2022-09-01T07:36:29.041Z,17.10
2022-09-01T07:48:02.701Z,21.20
2022-09-01T07:50:41.301Z,15.40
2022-09-01T07:53:30.870Z,16.90
2022-09-01T07:56:08.922Z,12.80
2022-09-01T07:58:41.340Z,16.60
2022-09-01T08:01:10.866Z,16.50
2022-09-01T08:03:40.837Z,20.90
2022-09-01T08:06:10.315Z,22.60
2022-09-01T08:08:39.408Z,16.30
2022-09-01T08:11:08.335Z,9.60
2022-09-01T08:13:42.015Z,10.40
2022-09-01T08:16:18.539Z,9.70
2022-09-01T08:18:49.381Z,10.60
2022-09-01T08:21:32.271Z,9.20
2022-09-01T08:24:01.917Z,12.70
2022-09-01T08:26:29.744Z,11.50
2022-09-01T08:28:56.665Z,12.30
2022-09-01T08:31:37.302Z,14.10
2022-09-01T08:34:04.970Z,9.10
2022-09-01T08:36:32.395Z,7.70
2022-09-01T08:38:59.407Z,10.10
2022-09-01T08:41:28.604Z,8.20
2022-09-01T08:44:10.371Z,10.10
2022-09-01T08:46:42.480Z,7.50
2022-09-01T08:49:25.843Z,18.60
2022-09-01T08:53:10.317Z,11.70
2022-09-01T08:55:46.913Z,8.30
2022-09-01T08:58:17.517Z,10.50
2022-09-01T09:01:11.650Z,11.30
2022-09-01T09:04:17.100Z,7.80
2022-09-01T09:07:10.248Z,18.10
2022-09-01T09:09:54.209Z,9.20
2022-09-01T09:12:50.769Z,13.30
2022-09-01T09:15:39.484Z,7.90
2022-09-01T09:18:39.922Z,22.00
2022-09-01T09:21:23.459Z,13.90
2022-09-01T09:24:22.693Z,9.80
2022-09-01T09:26:51.508Z,14.00
2022-09-01T09:29:20.013Z,30.40
2022-09-01T09:31:49.902Z,9.10
2022-09-01T09:34:38.411Z,13.10
2022-09-01T09:37:20.594Z,26.10
2022-09-01T09:43:01.635Z,13.00
2022-09-01T09:45:33.656Z,7.90
2022-09-01T09:48:07.135Z,9.60
2022-09-01T09:50:40.568Z,6.80
2022-09-01T09:53:25.681Z,7.60
2022-09-01T09:56:23.713Z,9.10
2022-09-01T09:58:52.372Z,7.60
2022-09-01T10:01:21.762Z,8.10
2022-09-01T10:03:54.345Z,8.20
2022-09-01T10:06:45.408Z,12.40
2022-09-01T10:09:33.751Z,9.60
2022-09-01T10:12:01.554Z,10.70
2022-09-01T10:14:51.800Z,11.10
2022-09-01T10:17:37.838Z,16.10
2022-09-01T10:20:20.705Z,6.90
2022-09-01T10:22:49.682Z,12.40
2022-09-01T10:25:21.330Z,6.90
2022-09-01T10:28:23.907Z,6.70
2022-09-01T10:30:53.342Z,13.20
2022-09-01T10:33:22.324Z,6.50
2022-09-01T10:35:52.015Z,8.40
2022-09-01T10:38:20.510Z,6.30
2022-09-01T10:41:06.534Z,7.30
2022-09-01T10:43:48.399Z,14.70
2022-09-01T10:46:38.971Z,7.20
2022-09-01T10:49:46.450Z,8.70
2022-09-01T10:52:41.532Z,6.60
2022-09-01T10:55:25.425Z,7.00
2022-09-01T10:58:09.594Z,8.50
2022-09-01T11:03:53.597Z,6.60
2022-09-01T11:09:42.998Z,7.60
2022-09-01T11:12:42.867Z,7.80
2022-09-01T11:15:16.934Z,8.70
2022-09-01T11:17:52.628Z,6.80
2022-09-01T11:20:28.414Z,6.40
2022-09-01T11:23:07.247Z,5.60
2022-09-01T11:25:39.680Z,8.10
2022-09-01T11:28:14.364Z,6.80
2022-09-01T11:30:51.321Z,6.60
2022-09-01T11:33:42.715Z,8.90
2022-09-01T11:36:25.405Z,6.70
2022-09-01T11:39:03.128Z,6.00
2022-09-01T11:41:35.427Z,7.60
2022-09-01T11:44:11.126Z,7.10
2022-09-01T11:46:38.381Z,6.30
2022-09-01T11:49:22.478Z,21.70
2022-09-01T11:51:49.253Z,9.50
2022-09-01T11:54:16.127Z,12.40
2022-09-01T11:56:43.002Z,11.20
2022-09-01T11:59:10.402Z,7.80
2022-09-01T12:01:39.920Z,8.60
2022-09-01T12:04:23.911Z,7.70
2022-09-01T12:07:01.720Z,9.20
2022-09-01T12:09:38.305Z,10.50
2022-09-01T12:12:07.402Z,10.10
2022-09-01T12:14:55.016Z,6.90
2022-09-01T12:17:21.318Z,6.90
2022-09-01T12:19:48.044Z,6.40
2022-09-01T12:22:20.949Z,6.50
2022-09-01T12:24:56.087Z,6.60
2022-09-01T12:27:22.722Z,6.10
2022-09-01T12:29:51.121Z,6.80
2022-09-01T12:32:19.256Z,6.50
2022-09-01T12:34:58.626Z,7.70
2022-09-01T12:37:26.638Z,8.00
2022-09-01T12:39:56.934Z,8.30
2022-09-01T12:42:40.607Z,6.60
2022-09-01T12:45:09.542Z,6.70
2022-09-01T12:47:36.582Z,6.60
2022-09-01T12:50:12.437Z,7.10
2022-09-01T12:53:12.751Z,8.70
2022-09-01T12:55:55.094Z,27.80
2022-09-01T13:01:16.918Z,13.80
2022-09-01T13:04:24.168Z,8.90
2022-09-01T13:06:52.923Z,14.20
2022-09-01T13:09:19.598Z,10.10
2022-09-01T13:12:06.265Z,13.90
2022-09-01T13:14:33.504Z,10.40
2022-09-01T13:17:00.667Z,7.90
2022-09-01T13:19:30.223Z,13.60
2022-09-01T13:21:57.746Z,8.20
2022-09-01T13:24:29.347Z,8.90
2022-09-01T13:29:45.112Z,7.50
2022-09-01T13:32:20.775Z,7.80
2022-09-01T13:34:52.003Z,11.70
2022-09-01T13:37:20.666Z,12.90
2022-09-01T13:39:47.940Z,6.50
2022-09-01T13:42:16.153Z,20.40
2022-09-01T13:44:44.146Z,7.10
2022-09-01T13:50:09.203Z,8.20
2022-09-01T13:52:38.889Z,11.20
2022-09-01T13:55:07.237Z,9.10
2022-09-01T13:57:36.587Z,9.60
2022-09-01T14:00:16.602Z,15.20
2022-09-01T14:02:52.478Z,15.00
2022-09-01T14:05:24.999Z,13.20
2022-09-01T14:07:52.804Z,12.50
2022-09-01T14:10:21.531Z,11.20
2022-09-01T14:12:49.709Z,9.30
2022-09-01T14:15:22.711Z,20.40
2022-09-01T14:17:55.944Z,12.50
2022-09-01T14:20:26.536Z,7.20
2022-09-01T14:22:54.274Z,9.30
2022-09-01T14:25:21.366Z,10.90
2022-09-01T14:27:49.296Z,12.10
2022-09-01T14:30:20.152Z,8.30
2022-09-01T14:32:46.883Z,11.70
2022-09-01T14:35:14.777Z,7.70
2022-09-01T14:37:41.593Z,8.30
2022-09-01T14:40:16.725Z,11.90
2022-09-01T14:42:48.496Z,36.00
2022-09-01T14:45:18.037Z,9.70
2022-09-01T14:47:50.002Z,9.30
2022-09-01T14:50:22.727Z,7.50
2022-09-01T14:52:55.841Z,6.30
2022-09-01T14:55:24.901Z,10.30
2022-09-01T14:57:52.106Z,9.00
2022-09-01T15:00:19.197Z,9.30
2022-09-01T15:02:47.092Z,6.50
2022-09-01T15:05:14.578Z,8.40
2022-09-01T15:07:42.516Z,8.20
2022-09-01T15:10:11.673Z,8.20
2022-09-01T15:12:43.032Z,6.90
2022-09-01T15:15:09.792Z,7.60
2022-09-01T15:17:36.488Z,10.00
2022-09-01T15:20:24.024Z,8.00
2022-09-01T15:22:51.087Z,7.10
2022-09-01T15:25:18.107Z,9.10
2022-09-01T15:28:06.485Z,8.40
2022-09-01T15:30:34.800Z,8.70
2022-09-01T15:33:02.819Z,8.70
2022-09-01T15:35:30.387Z,5.20
2022-09-01T15:37:57.597Z,10.40
2022-09-01T15:40:25.595Z,8.30
2022-09-01T15:42:52.536Z,9.50
2022-09-01T15:45:21.564Z,9.10
2022-09-01T15:47:48.808Z,8.30
2022-09-01T15:50:21.702Z,6.90
2022-09-01T15:52:54.516Z,8.20
2022-09-01T15:55:24.808Z,11.00
2022-09-01T15:57:54.382Z,7.00
2022-09-01T16:00:23.330Z,11.30
2022-09-01T16:02:51.135Z,9.10
2022-09-01T16:05:18.041Z,9.10
2022-09-01T16:07:45.375Z,8.50
2022-09-01T16:10:13.763Z,12.30
2022-09-01T16:12:46.008Z,7.80
2022-09-01T16:15:16.472Z,8.10
2022-09-01T16:17:58.448Z,10.00
2022-09-01T16:20:35.121Z,8.70
2022-09-01T16:23:19.602Z,7.50
2022-09-01T16:25:47.294Z,9.80
2022-09-01T16:28:20.315Z,9.00
2022-09-01T16:30:51.381Z,9.50
2022-09-01T16:33:21.042Z,9.60
2022-09-01T16:36:11.184Z,7.80
2022-09-01T16:38:53.389Z,8.60
2022-09-01T16:41:44.740Z,8.10
2022-09-01T16:44:33.649Z,7.40
2022-09-01T16:47:25.458Z,7.00
2022-09-01T16:50:16.199Z,8.00
2022-09-01T16:53:02.276Z,7.50
2022-09-01T16:55:44.214Z,14.10
2022-09-01T16:58:24.121Z,7.20
2022-09-01T17:00:53.985Z,7.90
2022-09-01T17:03:43.796Z,7.80
2022-09-01T17:06:51.516Z,7.60
2022-09-01T17:09:32.734Z,6.10
2022-09-01T17:12:22.731Z,7.50
2022-09-01T17:14:55.813Z,5.60
2022-09-01T17:17:32.719Z,6.10
2022-09-01T17:20:02.520Z,8.00
2022-09-01T17:22:31.127Z,5.50
2022-09-01T17:25:17.472Z,8.50
2022-09-01T17:27:58.846Z,7.20
2022-09-01T17:30:25.797Z,7.10
2022-09-01T17:33:17.339Z,7.00
2022-09-01T17:36:10.506Z,9.00
2022-09-01T17:38:47.594Z,9.30
2022-09-01T17:41:34.204Z,7.90
2022-09-01T17:44:20.737Z,5.50
2022-09-01T17:46:54.448Z,8.90
2022-09-01T17:49:21.219Z,8.00
2022-09-01T17:52:12.595Z,7.90
2022-09-01T17:55:02.118Z,8.30
2022-09-01T17:57:44.336Z,10.40
2022-09-01T18:00:17.728Z,8.10
2022-09-01T18:03:18.653Z,8.40
2022-09-01T18:05:59.160Z,12.70
2022-09-01T18:08:30.438Z,8.50
2022-09-01T18:11:18.337Z,8.20
2022-09-01T18:13:53.382Z,6.40
2022-09-01T18:16:26.434Z,6.40
2022-09-01T18:18:54.044Z,5.60
2022-09-01T18:21:25.967Z,7.80
2022-09-01T18:24:05.504Z,8.00
2022-09-01T18:26:38.772Z,7.80
2022-09-01T18:29:06.646Z,6.40
2022-09-01T18:31:33.666Z,6.50
2022-09-01T18:34:09.840Z,8.20
2022-09-01T18:36:53.616Z,7.40
2022-09-01T18:39:32.541Z,7.90
2022-09-01T18:42:26.812Z,7.10
2022-09-01T18:45:04.808Z,10.90
2022-09-01T18:47:40.049Z,7.10
2022-09-01T18:50:15.932Z,8.50
2022-09-01T18:52:49.074Z,8.40
2022-09-01T18:55:30.388Z,6.00
2022-09-01T18:58:05.750Z,9.10
2022-09-01T19:00:38.723Z,11.10
2022-09-01T19:03:13.310Z,13.20
2022-09-01T19:05:52.791Z,11.30
2022-09-01T19:08:31.630Z,8.30
2022-09-01T19:11:10.669Z,13.50
2022-09-01T19:14:05.570Z,19.00
2022-09-01T19:17:04.039Z,21.40
2022-09-01T19:19:40.516Z,11.00
2022-09-01T19:22:09.454Z,8.70
2022-09-01T19:24:46.183Z,10.20
2022-09-01T19:27:21.052Z,7.80
2022-09-01T19:29:56.170Z,7.10
2022-09-01T19:32:26.786Z,7.90
2022-09-01T19:34:58.467Z,6.50
2022-09-01T19:37:25.769Z,6.90
2022-09-01T19:39:54.425Z,6.70
2022-09-01T19:42:33.842Z,7.40
2022-09-01T19:45:19.777Z,6.50
2022-09-01T19:47:55.707Z,6.40
2022-09-01T19:50:38.365Z,6.70
2022-09-01T19:55:57.787Z,7.00
2022-09-01T19:58:34.918Z,6.00
2022-09-01T20:01:05.194Z,5.40
2022-09-01T20:04:09.162Z,5.60
2022-09-01T20:06:42.099Z,6.20
2022-09-01T20:09:19.048Z,5.70
2022-09-01T20:12:08.270Z,6.90
2022-09-01T20:14:48.761Z,5.80
2022-09-01T20:17:40.789Z,6.30
2022-09-01T20:20:16.410Z,6.80
2022-09-01T20:22:50.579Z,6.60
2022-09-01T20:25:21.337Z,6.80
2022-09-01T20:28:00.991Z,7.20
2022-09-01T20:30:40.418Z,5.60
2022-09-01T20:33:34.515Z,5.80
2022-09-01T20:36:27.776Z,5.00
2022-09-01T20:39:21.182Z,8.60
2022-09-01T20:41:55.613Z,7.70
2022-09-01T20:44:43.090Z,7.40
2022-09-01T20:47:11.973Z,5.40
2022-09-01T20:49:38.835Z,7.10
2022-09-01T20:52:17.897Z,5.80
2022-09-01T20:55:10.976Z,5.10
2022-09-01T20:57:47.704Z,7.30
2022-09-01T21:00:25.388Z,7.90
2022-09-01T21:03:36.204Z,5.80
2022-09-01T21:06:22.221Z,6.00
2022-09-01T21:09:01.481Z,5.00
2022-09-01T21:11:40.714Z,4.90
2022-09-01T21:14:16.941Z,5.10
2022-09-01T21:17:12.883Z,6.00
2022-09-01T21:19:45.642Z,3.70
2022-09-01T21:22:17.488Z,6.70
2022-09-01T21:24:48.000Z,4.90
2022-09-01T21:27:22.766Z,5.00
2022-09-01T21:29:55.572Z,5.10
2022-09-01T21:32:23.113Z,5.40
2022-09-01T21:34:49.980Z,5.40
2022-09-01T21:37:17.763Z,5.90
2022-09-01T21:39:44.727Z,4.40
2022-09-01T21:42:12.978Z,6.30
2022-09-01T21:44:40.590Z,6.30
2022-09-01T21:47:07.773Z,9.60
2022-09-01T21:49:34.410Z,8.80
2022-09-01T21:52:01.576Z,8.80
2022-09-01T21:54:28.199Z,5.60
2022-09-01T21:56:55.184Z,6.20
2022-09-01T21:59:22.685Z,6.20
2022-09-01T22:01:49.579Z,6.80
2022-09-01T22:04:17.827Z,5.60
2022-09-01T22:06:46.412Z,5.60
2022-09-01T22:09:21.286Z,6.80
2022-09-01T22:11:50.386Z,5.70
2022-09-01T22:14:18.561Z,5.70
2022-09-01T22:16:45.480Z,8.60
2022-09-01T22:19:12.234Z,6.60
2022-09-01T22:21:40.933Z,5.10
2022-09-01T22:24:08.641Z,7.70
2022-09-01T22:26:35.298Z,7.10
2022-09-01T22:29:05.238Z,7.10
2022-09-01T22:31:35.296Z,5.30
2022-09-01T22:34:01.934Z,6.50
2022-09-01T22:36:42.183Z,6.20
2022-09-01T22:39:09.939Z,5.60
2022-09-01T22:41:38.730Z,8.00
2022-09-01T22:44:06.529Z,8.50
2022-09-01T22:46:35.151Z,6.40
2022-09-01T22:49:03.487Z,5.20
2022-09-01T22:51:31.413Z,6.20
2022-09-01T22:53:58.200Z,6.00
2022-09-01T22:56:28.359Z,6.40
2022-09-01T22:58:57.471Z,6.40
2022-09-01T23:01:29.578Z,8.60
2022-09-01T23:04:01.187Z,6.80
2022-09-01T23:06:30.115Z,7.80
2022-09-01T23:09:00.024Z,7.90
2022-09-01T23:11:27.624Z,7.70
2022-09-01T23:13:54.741Z,8.40
2022-09-01T23:16:22.787Z,5.90
2022-09-01T23:18:50.727Z,5.30
2022-09-01T23:21:20.606Z,6.10
2022-09-01T23:23:47.652Z,7.80
2022-09-01T23:26:15.377Z,7.60
2022-09-01T23:28:44.338Z,6.00
2022-09-01T23:31:15.964Z,6.90
2022-09-01T23:33:43.138Z,5.50
2022-09-01T23:36:12.109Z,5.30
2022-09-01T23:38:39.861Z,5.60
2022-09-01T23:41:10.700Z,7.00
2022-09-01T23:43:37.573Z,5.70
2022-09-01T23:46:05.630Z,6.50
2022-09-01T23:48:33.023Z,5.80
2022-09-01T23:51:07.982Z,5.70
2022-09-01T23:53:36.505Z,6.00
2022-09-01T23:56:09.384Z,8.30
